sensor_id;sensor_type;location;lat;lon;timestamp;P1;durP1;ratioP1;P2;durP2;ratioP2
10389;SDS011;5241;47.830;12.972;2023-04-09T00:01:53;21.47;;;15.17;;
10389;SDS011;5241;47.830;12.972;2023-04-09T00:04:19;23.50;;;15.80;;
10389;SDS011;5241;47.830;12.972;2023-04-09T00:06:46;24.83;;;16.60;;
10389;SDS011;5241;47.830;12.972;2023-04-09T00:09:12;26.13;;;16.93;;
10389;SDS011;5241;47.830;12.972;2023-04-09T00:11:37;27.40;;;18.57;;
10389;SDS011;5241;47.830;12.972;2023-04-09T00:14:03;25.40;;;17.70;;
10389;SDS011;5241;47.830;12.972;2023-04-09T00:16:28;27.37;;;18.47;;
10389;SDS011;5241;47.830;12.972;2023-04-09T00:18:54;28.77;;;18.23;;
10389;SDS011;5241;47.830;12.972;2023-04-09T00:21:20;31.93;;;19.90;;
10389;SDS011;5241;47.830;12.972;2023-04-09T00:23:46;31.83;;;19.30;;
10389;SDS011;5241;47.830;12.972;2023-04-09T00:26:11;31.60;;;19.67;;
10389;SDS011;5241;47.830;12.972;2023-04-09T00:28:37;33.17;;;20.40;;
10389;SDS011;5241;47.830;12.972;2023-04-09T00:31:02;33.17;;;20.00;;
10389;SDS011;5241;47.830;12.972;2023-04-09T00:33:28;32.43;;;18.93;;
10389;SDS011;5241;47.830;12.972;2023-04-09T00:35:53;31.47;;;19.20;;
10389;SDS011;5241;47.830;12.972;2023-04-09T00:38:19;32.53;;;19.40;;
10389;SDS011;5241;47.830;12.972;2023-04-09T00:40:48;30.07;;;19.33;;
10389;SDS011;5241;47.830;12.972;2023-04-09T00:43:15;28.93;;;18.67;;
10389;SDS011;5241;47.830;12.972;2023-04-09T00:45:41;31.70;;;19.80;;
10389;SDS011;5241;47.830;12.972;2023-04-09T00:48:08;31.83;;;20.33;;
10389;SDS011;5241;47.830;12.972;2023-04-09T00:50:33;30.83;;;19.03;;
10389;SDS011;5241;47.830;12.972;2023-04-09T00:52:59;32.83;;;20.60;;
10389;SDS011;5241;47.830;12.972;2023-04-09T00:55:25;31.53;;;19.80;;
10389;SDS011;5241;47.830;12.972;2023-04-09T00:57:51;31.53;;;19.37;;
10389;SDS011;5241;47.830;12.972;2023-04-09T01:00:16;33.70;;;19.63;;
10389;SDS011;5241;47.830;12.972;2023-04-09T01:02:42;30.87;;;19.50;;
10389;SDS011;5241;47.830;12.972;2023-04-09T01:05:08;28.73;;;18.80;;
10389;SDS011;5241;47.830;12.972;2023-04-09T01:10:35;28.47;;;18.33;;
10389;SDS011;5241;47.830;12.972;2023-04-09T01:13:07;29.57;;;19.33;;
10389;SDS011;5241;47.830;12.972;2023-04-09T01:15:39;30.57;;;18.60;;
10389;SDS011;5241;47.830;12.972;2023-04-09T01:18:12;31.60;;;18.40;;
10389;SDS011;5241;47.830;12.972;2023-04-09T01:21:05;30.63;;;19.57;;
10389;SDS011;5241;47.830;12.972;2023-04-09T01:23:44;29.47;;;18.33;;
10389;SDS011;5241;47.830;12.972;2023-04-09T01:28:43;28.67;;;18.60;;
10389;SDS011;5241;47.830;12.972;2023-04-09T01:31:14;28.33;;;18.50;;
10389;SDS011;5241;47.830;12.972;2023-04-09T01:33:42;29.40;;;18.40;;
10389;SDS011;5241;47.830;12.972;2023-04-09T01:36:08;28.13;;;18.53;;
10389;SDS011;5241;47.830;12.972;2023-04-09T01:38:35;27.57;;;18.03;;
10389;SDS011;5241;47.830;12.972;2023-04-09T01:41:04;27.33;;;17.93;;
10389;SDS011;5241;47.830;12.972;2023-04-09T01:43:31;27.10;;;17.43;;
10389;SDS011;5241;47.830;12.972;2023-04-09T01:45:58;29.43;;;19.90;;
10389;SDS011;5241;47.830;12.972;2023-04-09T01:48:25;28.70;;;18.60;;
10389;SDS011;5241;47.830;12.972;2023-04-09T01:50:52;29.50;;;18.47;;
10389;SDS011;5241;47.830;12.972;2023-04-09T01:53:18;29.57;;;18.80;;
10389;SDS011;5241;47.830;12.972;2023-04-09T01:55:46;27.03;;;17.50;;
10389;SDS011;5241;47.830;12.972;2023-04-09T01:58:12;28.63;;;18.87;;
10389;SDS011;5241;47.830;12.972;2023-04-09T02:00:38;26.93;;;18.07;;
10389;SDS011;5241;47.830;12.972;2023-04-09T02:03:28;30.80;;;19.80;;
10389;SDS011;5241;47.830;12.972;2023-04-09T02:08:52;27.70;;;18.47;;
10389;SDS011;5241;47.830;12.972;2023-04-09T02:11:19;29.17;;;17.87;;
10389;SDS011;5241;47.830;12.972;2023-04-09T02:13:47;28.90;;;17.97;;
10389;SDS011;5241;47.830;12.972;2023-04-09T02:16:15;31.43;;;18.40;;
10389;SDS011;5241;47.830;12.972;2023-04-09T02:18:41;24.67;;;17.70;;
10389;SDS011;5241;47.830;12.972;2023-04-09T02:21:07;27.90;;;19.23;;
10389;SDS011;5241;47.830;12.972;2023-04-09T02:23:35;29.00;;;18.73;;
10389;SDS011;5241;47.830;12.972;2023-04-09T02:26:00;30.53;;;20.10;;
10389;SDS011;5241;47.830;12.972;2023-04-09T02:28:26;29.20;;;19.43;;
10389;SDS011;5241;47.830;12.972;2023-04-09T02:30:51;30.27;;;19.77;;
10389;SDS011;5241;47.830;12.972;2023-04-09T02:33:17;33.20;;;20.87;;
10389;SDS011;5241;47.830;12.972;2023-04-09T02:35:42;32.00;;;20.67;;
10389;SDS011;5241;47.830;12.972;2023-04-09T02:38:08;33.53;;;19.97;;
10389;SDS011;5241;47.830;12.972;2023-04-09T02:40:39;35.57;;;20.07;;
10389;SDS011;5241;47.830;12.972;2023-04-09T02:43:08;36.67;;;21.33;;
10389;SDS011;5241;47.830;12.972;2023-04-09T02:45:34;33.97;;;20.93;;
10389;SDS011;5241;47.830;12.972;2023-04-09T02:48:00;36.30;;;20.90;;
10389;SDS011;5241;47.830;12.972;2023-04-09T02:50:26;30.53;;;19.77;;
10389;SDS011;5241;47.830;12.972;2023-04-09T02:52:51;29.07;;;19.40;;
10389;SDS011;5241;47.830;12.972;2023-04-09T02:55:17;31.57;;;18.77;;
10389;SDS011;5241;47.830;12.972;2023-04-09T02:57:44;27.87;;;18.20;;
10389;SDS011;5241;47.830;12.972;2023-04-09T03:00:10;26.53;;;18.13;;
10389;SDS011;5241;47.830;12.972;2023-04-09T03:02:36;27.57;;;18.33;;
10389;SDS011;5241;47.830;12.972;2023-04-09T03:05:02;27.77;;;17.73;;
10389;SDS011;5241;47.830;12.972;2023-04-09T03:07:27;23.83;;;16.90;;
10389;SDS011;5241;47.830;12.972;2023-04-09T03:09:53;25.93;;;16.47;;
10389;SDS011;5241;47.830;12.972;2023-04-09T03:12:19;23.33;;;15.97;;
10389;SDS011;5241;47.830;12.972;2023-04-09T03:14:44;25.97;;;16.40;;
10389;SDS011;5241;47.830;12.972;2023-04-09T03:17:10;25.17;;;16.47;;
10389;SDS011;5241;47.830;12.972;2023-04-09T03:19:35;22.90;;;16.03;;
10389;SDS011;5241;47.830;12.972;2023-04-09T03:22:01;24.53;;;15.43;;
10389;SDS011;5241;47.830;12.972;2023-04-09T03:24:26;23.60;;;15.90;;
10389;SDS011;5241;47.830;12.972;2023-04-09T03:26:52;22.10;;;14.83;;
10389;SDS011;5241;47.830;12.972;2023-04-09T03:29:17;22.70;;;15.03;;
10389;SDS011;5241;47.830;12.972;2023-04-09T03:31:43;22.47;;;15.23;;
10389;SDS011;5241;47.830;12.972;2023-04-09T03:34:08;25.33;;;15.67;;
10389;SDS011;5241;47.830;12.972;2023-04-09T03:36:34;22.23;;;16.03;;
10389;SDS011;5241;47.830;12.972;2023-04-09T03:39:00;21.63;;;14.80;;
10389;SDS011;5241;47.830;12.972;2023-04-09T03:41:26;22.70;;;15.27;;
10389;SDS011;5241;47.830;12.972;2023-04-09T03:43:51;25.33;;;16.33;;
10389;SDS011;5241;47.830;12.972;2023-04-09T03:46:17;23.07;;;15.07;;
10389;SDS011;5241;47.830;12.972;2023-04-09T03:48:43;22.20;;;15.23;;
10389;SDS011;5241;47.830;12.972;2023-04-09T03:51:12;23.00;;;15.17;;
10389;SDS011;5241;47.830;12.972;2023-04-09T03:53:39;22.63;;;15.00;;
10389;SDS011;5241;47.830;12.972;2023-04-09T03:56:06;22.77;;;15.13;;
10389;SDS011;5241;47.830;12.972;2023-04-09T03:58:32;21.63;;;14.73;;
10389;SDS011;5241;47.830;12.972;2023-04-09T04:00:57;22.73;;;15.00;;
10389;SDS011;5241;47.830;12.972;2023-04-09T04:03:23;24.37;;;15.97;;
10389;SDS011;5241;47.830;12.972;2023-04-09T04:05:48;24.17;;;15.57;;
10389;SDS011;5241;47.830;12.972;2023-04-09T04:08:14;26.37;;;17.10;;
10389;SDS011;5241;47.830;12.972;2023-04-09T04:10:40;29.83;;;18.47;;
10389;SDS011;5241;47.830;12.972;2023-04-09T04:13:05;27.33;;;17.97;;
10389;SDS011;5241;47.830;12.972;2023-04-09T04:15:40;28.83;;;17.37;;
10389;SDS011;5241;47.830;12.972;2023-04-09T04:18:07;30.00;;;18.23;;
10389;SDS011;5241;47.830;12.972;2023-04-09T04:20:35;30.60;;;19.50;;
10389;SDS011;5241;47.830;12.972;2023-04-09T04:23:02;29.77;;;18.73;;
10389;SDS011;5241;47.830;12.972;2023-04-09T04:25:28;30.20;;;18.60;;
10389;SDS011;5241;47.830;12.972;2023-04-09T04:27:54;31.33;;;18.27;;
10389;SDS011;5241;47.830;12.972;2023-04-09T04:30:20;25.70;;;17.63;;
10389;SDS011;5241;47.830;12.972;2023-04-09T04:32:46;28.63;;;17.63;;
10389;SDS011;5241;47.830;12.972;2023-04-09T04:35:12;30.97;;;19.17;;
10389;SDS011;5241;47.830;12.972;2023-04-09T04:37:38;29.10;;;18.33;;
10389;SDS011;5241;47.830;12.972;2023-04-09T04:40:05;30.20;;;17.73;;
10389;SDS011;5241;47.830;12.972;2023-04-09T04:42:31;29.17;;;18.57;;
10389;SDS011;5241;47.830;12.972;2023-04-09T04:44:57;25.40;;;16.80;;
10389;SDS011;5241;47.830;12.972;2023-04-09T04:47:23;26.03;;;17.50;;
10389;SDS011;5241;47.830;12.972;2023-04-09T04:49:49;24.40;;;16.43;;
10389;SDS011;5241;47.830;12.972;2023-04-09T04:52:14;25.97;;;18.03;;
10389;SDS011;5241;47.830;12.972;2023-04-09T04:54:40;26.10;;;16.97;;
10389;SDS011;5241;47.830;12.972;2023-04-09T04:57:05;24.47;;;18.00;;
10389;SDS011;5241;47.830;12.972;2023-04-09T04:59:31;28.27;;;17.57;;
10389;SDS011;5241;47.830;12.972;2023-04-09T05:01:56;26.73;;;18.00;;
10389;SDS011;5241;47.830;12.972;2023-04-09T05:04:22;28.87;;;19.00;;
10389;SDS011;5241;47.830;12.972;2023-04-09T05:06:47;30.13;;;19.17;;
10389;SDS011;5241;47.830;12.972;2023-04-09T05:09:13;29.77;;;19.73;;
10389;SDS011;5241;47.830;12.972;2023-04-09T05:11:38;28.03;;;18.27;;
10389;SDS011;5241;47.830;12.972;2023-04-09T05:14:04;24.73;;;16.67;;
10389;SDS011;5241;47.830;12.972;2023-04-09T05:16:30;26.83;;;18.83;;
10389;SDS011;5241;47.830;12.972;2023-04-09T05:18:56;28.53;;;18.80;;
10389;SDS011;5241;47.830;12.972;2023-04-09T05:21:21;25.40;;;17.47;;
10389;SDS011;5241;47.830;12.972;2023-04-09T05:23:47;26.73;;;17.57;;
10389;SDS011;5241;47.830;12.972;2023-04-09T05:26:12;27.57;;;17.97;;
10389;SDS011;5241;47.830;12.972;2023-04-09T05:28:38;27.93;;;19.57;;
10389;SDS011;5241;47.830;12.972;2023-04-09T05:31:03;29.03;;;18.93;;
10389;SDS011;5241;47.830;12.972;2023-04-09T05:33:34;25.10;;;16.70;;
10389;SDS011;5241;47.830;12.972;2023-04-09T05:36:02;24.13;;;17.23;;
10389;SDS011;5241;47.830;12.972;2023-04-09T05:38:27;27.43;;;18.83;;
10389;SDS011;5241;47.830;12.972;2023-04-09T05:40:53;27.07;;;17.77;;
10389;SDS011;5241;47.830;12.972;2023-04-09T05:43:18;26.47;;;17.93;;
10389;SDS011;5241;47.830;12.972;2023-04-09T05:45:44;23.87;;;16.77;;
10389;SDS011;5241;47.830;12.972;2023-04-09T05:48:10;23.80;;;17.03;;
10389;SDS011;5241;47.830;12.972;2023-04-09T05:50:35;24.47;;;17.30;;
10389;SDS011;5241;47.830;12.972;2023-04-09T05:53:01;24.37;;;17.40;;
10389;SDS011;5241;47.830;12.972;2023-04-09T05:55:27;23.13;;;16.40;;
10389;SDS011;5241;47.830;12.972;2023-04-09T05:57:53;24.33;;;16.53;;
10389;SDS011;5241;47.830;12.972;2023-04-09T06:00:18;23.33;;;16.27;;
10389;SDS011;5241;47.830;12.972;2023-04-09T06:02:45;20.90;;;16.40;;
10389;SDS011;5241;47.830;12.972;2023-04-09T06:05:11;24.03;;;16.40;;
10389;SDS011;5241;47.830;12.972;2023-04-09T06:07:36;21.47;;;15.93;;
10389;SDS011;5241;47.830;12.972;2023-04-09T06:10:02;22.13;;;15.97;;
10389;SDS011;5241;47.830;12.972;2023-04-09T06:12:27;24.43;;;18.33;;
10389;SDS011;5241;47.830;12.972;2023-04-09T06:14:53;26.67;;;18.57;;
10389;SDS011;5241;47.830;12.972;2023-04-09T06:17:18;25.97;;;18.07;;
10389;SDS011;5241;47.830;12.972;2023-04-09T06:19:44;26.03;;;18.53;;
10389;SDS011;5241;47.830;12.972;2023-04-09T06:22:10;24.87;;;18.20;;
10389;SDS011;5241;47.830;12.972;2023-04-09T06:24:35;25.70;;;18.43;;
10389;SDS011;5241;47.830;12.972;2023-04-09T06:27:01;24.27;;;18.20;;
10389;SDS011;5241;47.830;12.972;2023-04-09T06:29:26;24.07;;;18.03;;
10389;SDS011;5241;47.830;12.972;2023-04-09T06:31:52;23.47;;;17.97;;
10389;SDS011;5241;47.830;12.972;2023-04-09T06:34:18;22.47;;;16.60;;
10389;SDS011;5241;47.830;12.972;2023-04-09T06:36:43;20.37;;;15.83;;
10389;SDS011;5241;47.830;12.972;2023-04-09T06:39:09;20.93;;;15.97;;
10389;SDS011;5241;47.830;12.972;2023-04-09T06:41:35;18.77;;;15.13;;
10389;SDS011;5241;47.830;12.972;2023-04-09T06:44:00;21.87;;;17.33;;
10389;SDS011;5241;47.830;12.972;2023-04-09T06:46:26;20.10;;;16.40;;
10389;SDS011;5241;47.830;12.972;2023-04-09T06:48:52;24.07;;;16.07;;
10389;SDS011;5241;47.830;12.972;2023-04-09T06:51:18;20.17;;;16.20;;
10389;SDS011;5241;47.830;12.972;2023-04-09T06:53:43;21.37;;;15.60;;
10389;SDS011;5241;47.830;12.972;2023-04-09T06:56:11;20.17;;;15.93;;
10389;SDS011;5241;47.830;12.972;2023-04-09T06:58:37;19.20;;;15.53;;
10389;SDS011;5241;47.830;12.972;2023-04-09T07:01:02;18.63;;;14.50;;
10389;SDS011;5241;47.830;12.972;2023-04-09T07:03:28;19.03;;;15.20;;
10389;SDS011;5241;47.830;12.972;2023-04-09T07:05:54;18.90;;;15.27;;
10389;SDS011;5241;47.830;12.972;2023-04-09T07:08:21;20.63;;;16.33;;
10389;SDS011;5241;47.830;12.972;2023-04-09T07:10:47;20.07;;;15.47;;
10389;SDS011;5241;47.830;12.972;2023-04-09T07:13:13;20.50;;;16.23;;
10389;SDS011;5241;47.830;12.972;2023-04-09T07:15:38;19.90;;;15.67;;
10389;SDS011;5241;47.830;12.972;2023-04-09T07:18:04;18.63;;;15.80;;
10389;SDS011;5241;47.830;12.972;2023-04-09T07:20:30;19.47;;;16.27;;
10389;SDS011;5241;47.830;12.972;2023-04-09T07:22:55;18.93;;;15.70;;
10389;SDS011;5241;47.830;12.972;2023-04-09T07:25:21;22.40;;;17.47;;
10389;SDS011;5241;47.830;12.972;2023-04-09T07:27:46;22.17;;;16.63;;
10389;SDS011;5241;47.830;12.972;2023-04-09T07:30:13;21.73;;;16.80;;
10389;SDS011;5241;47.830;12.972;2023-04-09T07:32:39;23.30;;;17.17;;
10389;SDS011;5241;47.830;12.972;2023-04-09T07:35:05;21.50;;;17.30;;
10389;SDS011;5241;47.830;12.972;2023-04-09T07:37:33;22.83;;;16.93;;
10389;SDS011;5241;47.830;12.972;2023-04-09T07:39:59;21.40;;;16.87;;
10389;SDS011;5241;47.830;12.972;2023-04-09T07:42:25;22.90;;;18.00;;
10389;SDS011;5241;47.830;12.972;2023-04-09T07:44:52;21.53;;;16.27;;
10389;SDS011;5241;47.830;12.972;2023-04-09T07:47:17;18.57;;;15.27;;
10389;SDS011;5241;47.830;12.972;2023-04-09T07:49:43;19.73;;;16.50;;
10389;SDS011;5241;47.830;12.972;2023-04-09T07:52:08;18.20;;;14.63;;
10389;SDS011;5241;47.830;12.972;2023-04-09T07:54:34;18.10;;;14.73;;
10389;SDS011;5241;47.830;12.972;2023-04-09T07:57:00;19.53;;;15.73;;
10389;SDS011;5241;47.830;12.972;2023-04-09T07:59:26;20.07;;;16.20;;
10389;SDS011;5241;47.830;12.972;2023-04-09T08:01:52;20.43;;;15.30;;
10389;SDS011;5241;47.830;12.972;2023-04-09T08:04:17;19.43;;;15.90;;
10389;SDS011;5241;47.830;12.972;2023-04-09T08:06:43;19.33;;;15.43;;
10389;SDS011;5241;47.830;12.972;2023-04-09T08:09:13;18.47;;;15.17;;
10389;SDS011;5241;47.830;12.972;2023-04-09T08:11:39;18.10;;;14.23;;
10389;SDS011;5241;47.830;12.972;2023-04-09T08:14:05;17.80;;;13.73;;
10389;SDS011;5241;47.830;12.972;2023-04-09T08:16:31;17.20;;;14.03;;
10389;SDS011;5241;47.830;12.972;2023-04-09T08:18:57;16.87;;;14.10;;
10389;SDS011;5241;47.830;12.972;2023-04-09T08:21:22;16.23;;;13.77;;
10389;SDS011;5241;47.830;12.972;2023-04-09T08:23:48;14.73;;;12.67;;
10389;SDS011;5241;47.830;12.972;2023-04-09T08:26:13;15.10;;;11.93;;
10389;SDS011;5241;47.830;12.972;2023-04-09T08:28:39;15.43;;;13.00;;
10389;SDS011;5241;47.830;12.972;2023-04-09T08:31:05;16.17;;;13.17;;
10389;SDS011;5241;47.830;12.972;2023-04-09T08:33:33;14.13;;;12.60;;
10389;SDS011;5241;47.830;12.972;2023-04-09T08:35:59;15.20;;;12.73;;
10389;SDS011;5241;47.830;12.972;2023-04-09T08:38:24;15.70;;;12.90;;
10389;SDS011;5241;47.830;12.972;2023-04-09T08:40:50;14.17;;;11.93;;
10389;SDS011;5241;47.830;12.972;2023-04-09T08:43:15;15.30;;;12.80;;
10389;SDS011;5241;47.830;12.972;2023-04-09T08:45:46;14.93;;;12.60;;
10389;SDS011;5241;47.830;12.972;2023-04-09T08:48:12;13.73;;;11.70;;
10389;SDS011;5241;47.830;12.972;2023-04-09T08:50:38;13.40;;;11.47;;
10389;SDS011;5241;47.830;12.972;2023-04-09T08:53:04;12.97;;;11.57;;
10389;SDS011;5241;47.830;12.972;2023-04-09T08:55:32;14.30;;;11.93;;
10389;SDS011;5241;47.830;12.972;2023-04-09T08:58:04;14.43;;;12.27;;
10389;SDS011;5241;47.830;12.972;2023-04-09T09:00:34;15.43;;;12.07;;
10389;SDS011;5241;47.830;12.972;2023-04-09T09:03:07;15.57;;;12.83;;
10389;SDS011;5241;47.830;12.972;2023-04-09T09:08:09;14.77;;;12.50;;
10389;SDS011;5241;47.830;12.972;2023-04-09T09:10:43;15.73;;;12.93;;
10389;SDS011;5241;47.830;12.972;2023-04-09T09:13:16;13.70;;;12.03;;
10389;SDS011;5241;47.830;12.972;2023-04-09T09:15:52;13.87;;;12.30;;
10389;SDS011;5241;47.830;12.972;2023-04-09T09:18:41;14.90;;;13.30;;
10389;SDS011;5241;47.830;12.972;2023-04-09T09:21:10;16.63;;;13.30;;
10389;SDS011;5241;47.830;12.972;2023-04-09T09:23:37;16.93;;;14.77;;
10389;SDS011;5241;47.830;12.972;2023-04-09T09:26:16;18.30;;;15.47;;
10389;SDS011;5241;47.830;12.972;2023-04-09T09:28:45;16.03;;;13.13;;
10389;SDS011;5241;47.830;12.972;2023-04-09T09:31:12;15.77;;;13.90;;
10389;SDS011;5241;47.830;12.972;2023-04-09T09:33:39;17.57;;;14.83;;
10389;SDS011;5241;47.830;12.972;2023-04-09T09:36:05;16.33;;;14.40;;
10389;SDS011;5241;47.830;12.972;2023-04-09T09:38:33;17.10;;;14.53;;
10389;SDS011;5241;47.830;12.972;2023-04-09T09:41:22;16.10;;;13.60;;
10389;SDS011;5241;47.830;12.972;2023-04-09T09:43:48;17.17;;;13.53;;
10389;SDS011;5241;47.830;12.972;2023-04-09T09:46:15;17.03;;;14.57;;
10389;SDS011;5241;47.830;12.972;2023-04-09T09:48:41;16.47;;;13.17;;
10389;SDS011;5241;47.830;12.972;2023-04-09T09:51:08;17.07;;;14.27;;
10389;SDS011;5241;47.830;12.972;2023-04-09T09:53:36;16.70;;;14.70;;
10389;SDS011;5241;47.830;12.972;2023-04-09T09:56:06;16.50;;;13.87;;
10389;SDS011;5241;47.830;12.972;2023-04-09T09:58:44;16.47;;;14.23;;
10389;SDS011;5241;47.830;12.972;2023-04-09T10:01:15;15.93;;;13.17;;
10389;SDS011;5241;47.830;12.972;2023-04-09T10:03:42;17.67;;;14.03;;
10389;SDS011;5241;47.830;12.972;2023-04-09T10:06:08;16.13;;;13.67;;
10389;SDS011;5241;47.830;12.972;2023-04-09T10:08:35;17.83;;;14.97;;
10389;SDS011;5241;47.830;12.972;2023-04-09T10:11:02;19.03;;;14.93;;
10389;SDS011;5241;47.830;12.972;2023-04-09T10:13:34;16.53;;;13.90;;
10389;SDS011;5241;47.830;12.972;2023-04-09T10:16:02;16.20;;;14.07;;
10389;SDS011;5241;47.830;12.972;2023-04-09T10:18:28;16.97;;;14.13;;
10389;SDS011;5241;47.830;12.972;2023-04-09T10:20:58;17.90;;;15.53;;
10389;SDS011;5241;47.830;12.972;2023-04-09T10:23:44;18.33;;;14.57;;
10389;SDS011;5241;47.830;12.972;2023-04-09T10:26:14;17.70;;;14.50;;
10389;SDS011;5241;47.830;12.972;2023-04-09T10:28:42;17.97;;;15.80;;
10389;SDS011;5241;47.830;12.972;2023-04-09T10:31:08;17.47;;;14.53;;
10389;SDS011;5241;47.830;12.972;2023-04-09T10:33:35;16.80;;;13.93;;
10389;SDS011;5241;47.830;12.972;2023-04-09T10:36:11;16.00;;;13.83;;
10389;SDS011;5241;47.830;12.972;2023-04-09T10:38:38;17.47;;;14.87;;
10389;SDS011;5241;47.830;12.972;2023-04-09T10:43:49;18.47;;;14.87;;
10389;SDS011;5241;47.830;12.972;2023-04-09T10:46:25;18.33;;;14.53;;
10389;SDS011;5241;47.830;12.972;2023-04-09T10:51:52;15.00;;;13.40;;
10389;SDS011;5241;47.830;12.972;2023-04-09T10:54:35;17.30;;;13.90;;
10389;SDS011;5241;47.830;12.972;2023-04-09T10:59:41;16.07;;;13.97;;
10389;SDS011;5241;47.830;12.972;2023-04-09T11:05:41;17.27;;;13.97;;
10389;SDS011;5241;47.830;12.972;2023-04-09T11:08:09;18.47;;;15.30;;
10389;SDS011;5241;47.830;12.972;2023-04-09T11:10:39;18.77;;;15.60;;
10389;SDS011;5241;47.830;12.972;2023-04-09T11:13:09;22.50;;;17.37;;
10389;SDS011;5241;47.830;12.972;2023-04-09T11:15:36;23.53;;;17.53;;
10389;SDS011;5241;47.830;12.972;2023-04-09T11:18:01;23.17;;;18.60;;
10389;SDS011;5241;47.830;12.972;2023-04-09T11:20:28;28.63;;;21.47;;
10389;SDS011;5241;47.830;12.972;2023-04-09T11:22:55;26.47;;;21.60;;
10389;SDS011;5241;47.830;12.972;2023-04-09T11:25:24;20.87;;;17.50;;
10389;SDS011;5241;47.830;12.972;2023-04-09T11:27:55;21.57;;;17.73;;
10389;SDS011;5241;47.830;12.972;2023-04-09T11:30:20;20.57;;;17.17;;
10389;SDS011;5241;47.830;12.972;2023-04-09T11:32:47;20.60;;;16.83;;
10389;SDS011;5241;47.830;12.972;2023-04-09T11:35:17;19.70;;;16.13;;
10389;SDS011;5241;47.830;12.972;2023-04-09T11:37:44;20.30;;;15.67;;
10389;SDS011;5241;47.830;12.972;2023-04-09T11:40:14;19.00;;;15.33;;
10389;SDS011;5241;47.830;12.972;2023-04-09T11:42:42;20.00;;;16.10;;
10389;SDS011;5241;47.830;12.972;2023-04-09T11:45:09;22.50;;;17.40;;
10389;SDS011;5241;47.830;12.972;2023-04-09T11:47:35;20.67;;;16.27;;
10389;SDS011;5241;47.830;12.972;2023-04-09T11:50:02;20.13;;;15.40;;
10389;SDS011;5241;47.830;12.972;2023-04-09T11:52:30;20.03;;;14.87;;
10389;SDS011;5241;47.830;12.972;2023-04-09T11:54:59;19.07;;;15.30;;
10389;SDS011;5241;47.830;12.972;2023-04-09T11:57:35;21.33;;;16.37;;
10389;SDS011;5241;47.830;12.972;2023-04-09T12:00:05;19.60;;;16.63;;
10389;SDS011;5241;47.830;12.972;2023-04-09T12:02:32;19.03;;;15.17;;
10389;SDS011;5241;47.830;12.972;2023-04-09T12:05:01;20.63;;;15.53;;
10389;SDS011;5241;47.830;12.972;2023-04-09T12:07:34;19.70;;;15.40;;
10389;SDS011;5241;47.830;12.972;2023-04-09T12:10:08;22.80;;;16.57;;
10389;SDS011;5241;47.830;12.972;2023-04-09T12:12:41;18.93;;;15.93;;
10389;SDS011;5241;47.830;12.972;2023-04-09T12:15:18;23.03;;;17.47;;
10389;SDS011;5241;47.830;12.972;2023-04-09T12:17:54;24.23;;;18.40;;
10389;SDS011;5241;47.830;12.972;2023-04-09T12:20:25;23.47;;;18.97;;
10389;SDS011;5241;47.830;12.972;2023-04-09T12:22:54;24.73;;;19.67;;
10389;SDS011;5241;47.830;12.972;2023-04-09T12:25:20;26.87;;;21.03;;
10389;SDS011;5241;47.830;12.972;2023-04-09T12:27:45;24.13;;;19.20;;
10389;SDS011;5241;47.830;12.972;2023-04-09T12:30:11;22.73;;;17.63;;
10389;SDS011;5241;47.830;12.972;2023-04-09T12:32:37;23.67;;;18.73;;
10389;SDS011;5241;47.830;12.972;2023-04-09T12:35:03;22.30;;;18.17;;
10389;SDS011;5241;47.830;12.972;2023-04-09T12:37:28;21.83;;;17.37;;
10389;SDS011;5241;47.830;12.972;2023-04-09T12:39:54;21.90;;;17.47;;
10389;SDS011;5241;47.830;12.972;2023-04-09T12:42:20;23.83;;;18.73;;
10389;SDS011;5241;47.830;12.972;2023-04-09T12:44:45;24.43;;;18.90;;
10389;SDS011;5241;47.830;12.972;2023-04-09T12:47:11;26.00;;;19.90;;
10389;SDS011;5241;47.830;12.972;2023-04-09T12:49:37;26.13;;;19.87;;
10389;SDS011;5241;47.830;12.972;2023-04-09T12:52:03;24.80;;;19.33;;
10389;SDS011;5241;47.830;12.972;2023-04-09T12:54:29;24.87;;;19.07;;
10389;SDS011;5241;47.830;12.972;2023-04-09T12:56:55;23.30;;;17.37;;
10389;SDS011;5241;47.830;12.972;2023-04-09T12:59:20;24.73;;;19.13;;
10389;SDS011;5241;47.830;12.972;2023-04-09T13:01:46;20.53;;;16.03;;
10389;SDS011;5241;47.830;12.972;2023-04-09T13:04:11;21.23;;;17.63;;
10389;SDS011;5241;47.830;12.972;2023-04-09T13:06:37;22.77;;;17.63;;
10389;SDS011;5241;47.830;12.972;2023-04-09T13:09:02;20.67;;;16.63;;
10389;SDS011;5241;47.830;12.972;2023-04-09T13:11:28;18.60;;;15.60;;
10389;SDS011;5241;47.830;12.972;2023-04-09T13:13:53;20.07;;;16.10;;
10389;SDS011;5241;47.830;12.972;2023-04-09T13:16:19;20.80;;;15.97;;
10389;SDS011;5241;47.830;12.972;2023-04-09T13:18:45;20.70;;;17.17;;
10389;SDS011;5241;47.830;12.972;2023-04-09T13:21:10;19.00;;;16.33;;
10389;SDS011;5241;47.830;12.972;2023-04-09T13:23:39;19.03;;;16.63;;
10389;SDS011;5241;47.830;12.972;2023-04-09T13:26:04;17.70;;;15.03;;
10389;SDS011;5241;47.830;12.972;2023-04-09T13:28:30;17.93;;;16.03;;
10389;SDS011;5241;47.830;12.972;2023-04-09T13:30:56;18.90;;;15.37;;
10389;SDS011;5241;47.830;12.972;2023-04-09T13:33:21;18.57;;;16.03;;
10389;SDS011;5241;47.830;12.972;2023-04-09T13:35:48;18.63;;;16.07;;
10389;SDS011;5241;47.830;12.972;2023-04-09T13:38:15;16.97;;;15.17;;
10389;SDS011;5241;47.830;12.972;2023-04-09T13:40:40;16.80;;;15.00;;
10389;SDS011;5241;47.830;12.972;2023-04-09T13:43:06;16.50;;;14.60;;
10389;SDS011;5241;47.830;12.972;2023-04-09T13:45:31;17.23;;;14.67;;
10389;SDS011;5241;47.830;12.972;2023-04-09T13:47:57;16.60;;;14.73;;
10389;SDS011;5241;47.830;12.972;2023-04-09T13:50:22;15.93;;;13.97;;
10389;SDS011;5241;47.830;12.972;2023-04-09T13:52:48;16.27;;;13.93;;
10389;SDS011;5241;47.830;12.972;2023-04-09T13:55:13;15.13;;;13.53;;
10389;SDS011;5241;47.830;12.972;2023-04-09T13:57:39;15.23;;;13.63;;
10389;SDS011;5241;47.830;12.972;2023-04-09T14:00:05;16.53;;;14.73;;
10389;SDS011;5241;47.830;12.972;2023-04-09T14:02:32;16.03;;;14.03;;
10389;SDS011;5241;47.830;12.972;2023-04-09T14:04:57;15.97;;;13.83;;
10389;SDS011;5241;47.830;12.972;2023-04-09T14:07:23;14.73;;;12.73;;
10389;SDS011;5241;47.830;12.972;2023-04-09T14:09:49;14.13;;;12.63;;
10389;SDS011;5241;47.830;12.972;2023-04-09T14:12:15;16.57;;;14.77;;
10389;SDS011;5241;47.830;12.972;2023-04-09T14:14:41;16.43;;;14.73;;
10389;SDS011;5241;47.830;12.972;2023-04-09T14:17:07;13.60;;;12.20;;
10389;SDS011;5241;47.830;12.972;2023-04-09T14:19:32;12.87;;;11.57;;
10389;SDS011;5241;47.830;12.972;2023-04-09T14:21:58;13.10;;;11.80;;
10389;SDS011;5241;47.830;12.972;2023-04-09T14:24:23;13.13;;;11.73;;
10389;SDS011;5241;47.830;12.972;2023-04-09T14:26:49;12.70;;;11.40;;
10389;SDS011;5241;47.830;12.972;2023-04-09T14:29:17;12.70;;;11.40;;
10389;SDS011;5241;47.830;12.972;2023-04-09T14:31:43;13.00;;;11.40;;
10389;SDS011;5241;47.830;12.972;2023-04-09T14:34:09;11.63;;;10.53;;
10389;SDS011;5241;47.830;12.972;2023-04-09T14:36:35;10.80;;;9.80;;
10389;SDS011;5241;47.830;12.972;2023-04-09T14:39:00;11.77;;;10.67;;
10389;SDS011;5241;47.830;12.972;2023-04-09T14:41:26;11.50;;;10.30;;
10389;SDS011;5241;47.830;12.972;2023-04-09T14:43:51;12.93;;;11.13;;